Airport ID:1G3
Update Time (UTC):29/07/2021 16:20
Wind Speed (Knots):8
Wind Direction (Magnetic):250
Temperature (°C):25
Dew Point (°C):22
Humidity (%):82
Altimeter (inHg):29.89
Density Altitude (Feet):3000
Visibility:10+
Clouds (Hundreds of feet):***
Present Weather:
METAR:METAR 1G3 291620Z AUTO 24008G13KT 10SM 25/23 A2989 RMK A01

The data displayed is for advisory purposes only and is not to be used for flight planning or operations.